Date,TemperatureHighF,TemperatureAvgF,TemperatureLowF,DewpointHighF,DewpointAvgF,DewpointLowF,HumidityHigh,HumidityAvg,HumidityLow,PressureMaxIn,PressureMinIn,WindSpeedMaxMPH,WindSpeedAvgMPH,GustSpeedMaxMPH,PrecipitationSumIn
2013-3-2,51.7,33.7,24.5,30.0,20.2,14.0,73,59,42,29.56,29.34,13,4,0,0.00
2013-3-3,39.0,26.4,22.3,26.3,19.7,15.1,91,76,58,29.32,29.07,13,4,0,0.00
2013-3-4,22.0,11.1,-0.6,18.2,5.3,-5.5,88,77,60,29.41,29.01,16,4,0,0.00
2013-3-5,46.8,21.0,0.3,11.8,-2.2,-10.8,81,42,15,29.52,29.40,10,3,0,0.00
2013-3-6,54.9,33.4,17.8,20.5,10.3,-6.5,57,40,21,29.47,29.31,18,5,0,0.00
2013-3-7,57.7,35.5,24.4,22.6,14.0,6.0,57,43,23,29.48,29.35,19,4,0,0.00
2013-3-8,55.9,32.3,22.5,21.4,13.3,5.6,84,48,21,29.46,29.15,13,2,0,0.00
2013-3-9,30.6,20.2,9.5,19.3,12.5,3.6,87,72,53,29.51,29.11,10,2,0,0.00
2013-3-10,44.8,20.2,6.8,22.0,8.3,1.1,78,62,36,29.63,29.50,8,3,0,0.00
2013-3-11,25.2,19.5,14.9,21.6,15.5,9.0,90,84,71,29.60,29.45,13,4,0,0.00
2013-3-12,34.0,23.5,13.5,26.2,18.8,10.3,89,82,65,29.80,29.60,11,5,0,0.00
2013-3-13,51.0,31.9,21.9,30.4,22.4,18.7,89,70,43,29.96,29.78,18,5,0,0.00
2013-3-14,57.9,36.5,21.9,28.8,20.3,14.9,76,54,29,29.99,29.87,11,3,0,0.00
2013-3-15,50.2,38.5,31.3,28.0,21.6,17.7,71,51,39,29.86,29.66,16,5,0,0.00
2013-3-16,44.3,30.7,21.3,23.7,16.0,4.1,76,55,37,29.66,29.43,13,4,0,0.00
2013-3-17,41.4,20.2,6.2,19.9,7.7,-3.0,86,59,40,29.43,29.10,22,6,0,0.00
2013-3-18,21.7,12.4,3.7,13.7,3.9,-3.0,83,68,56,29.47,29.34,18,5,0,0.00
2013-3-19,34.0,18.5,5.1,4.4,-2.1,-9.3,70,43,21,29.84,29.42,22,6,0,0.00
2013-3-20,44.2,24.0,10.9,22.2,8.1,-10.3,90,55,26,29.82,29.44,18,5,0,0.00
2013-3-21,26.7,19.9,6.7,24.4,16.3,1.9,92,86,77,29.44,29.25,14,4,0,0.00
2013-3-22,24.5,10.4,0.9,13.1,2.5,-3.8,83,71,50,29.41,29.30,10,2,0,0.00
2013-3-23,16.4,4.7,-3.5,6.9,-1.6,-8.9,79,75,60,29.59,29.34,5,1,0,0.00
2013-3-24,14.6,3.0,-2.0,11.4,-3.4,-7.2,87,74,56,29.64,29.51,8,2,0,0.36
2013-3-25,25.0,8.7,-4.2,6.3,-1.8,-8.1,87,64,35,29.74,29.62,10,2,0,0.07
2013-3-26,32.5,21.2,4.3,22.4,12.2,-4.8,77,68,57,29.71,29.63,8,3,0,0.04
2013-3-27,42.4,28.2,18.7,23.0,19.8,15.2,98,73,40,29.82,29.67,15,2,0,0.02
2013-3-28,46.2,31.8,20.5,23.2,19.2,16.3,88,63,33,29.92,29.79,9,2,0,0.00
2013-3-29,42.6,32.2,24.3,28.3,23.0,19.3,94,69,52,29.93,29.88,8,3,0,0.01
2013-3-30,42.3,29.2,16.0,26.3,20.2,8.0,87,70,49,29.95,29.84,8,3,0,0.00
2013-3-31,46.6,31.2,14.4,16.8,13.2,7.9,86,51,25,29.93,29.81,9,3,0,0.00